Time;durP1;ratioP1;P1;durP2;ratioP2;P2;SDS_P1;SDS_P2;PMS_P1;PMS_P2;Temp;Humidity;BMP_temperature;BMP_pressure;BME280_temperature;BME280_humidity;BME280_pressure;Samples;Min_cycle;Max_cycle;Signal;HPM_P1;HPM_P2
2022/02/25 00:01:55;;;;;;;0.00;0.00;;;;;;;;;;5037384;28;20087;-88
2022/02/25 00:04:21;;;;;;;0.00;0.00;;;;;;;;;;5037326;28;20564;-88
2022/02/25 00:06:47;;;;;;;0.10;0.10;;;;;;;;;;5036984;28;20399;-88
2022/02/25 00:09:13;;;;;;;0.10;0.10;;;;;;;;;;5036995;28;20404;-88
2022/02/25 00:11:39;;;;;;;0.95;0.15;;;;;;;;;;5037094;28;20484;-88
2022/02/25 00:14:05;;;;;;;0.00;0.00;;;;;;;;;;5020439;28;20047;-88
2022/02/25 00:16:31;;;;;;;0.10;0.10;;;;;;;;;;5036931;28;20495;-89
2022/02/25 00:18:58;;;;;;;0.45;0.30;;;;;;;;;;5036841;28;20396;-90
2022/02/25 00:21:24;;;;;;;0.05;0.05;;;;;;;;;;5020695;28;20044;-89
2022/02/25 00:23:50;;;;;;;0.00;0.00;;;;;;;;;;5053508;28;20029;-89
2022/02/25 00:26:16;;;;;;;0.00;0.00;;;;;;;;;;5037109;28;20102;-88
2022/02/25 00:28:42;;;;;;;0.03;0.03;;;;;;;;;;5036343;28;20545;-89
2022/02/25 00:31:08;;;;;;;0.00;0.00;;;;;;;;;;5036956;28;20037;-89
2022/02/25 00:33:34;;;;;;;0.00;0.00;;;;;;;;;;5020192;28;20029;-89
2022/02/25 00:36:00;;;;;;;0.03;0.03;;;;;;;;;;5020429;28;20102;-89
2022/02/25 00:38:26;;;;;;;0.30;0.30;;;;;;;;;;5036902;28;20075;-89
2022/02/25 00:40:52;;;;;;;0.00;0.00;;;;;;;;;;5036645;28;20098;-90
2022/02/25 00:43:18;;;;;;;0.05;0.05;;;;;;;;;;5036725;28;20041;-90
2022/02/25 00:45:44;;;;;;;0.10;0.10;;;;;;;;;;5020202;28;20048;-90
2022/02/25 00:48:10;;;;;;;0.00;0.00;;;;;;;;;;5020444;28;20255;-90
2022/02/25 00:50:36;;;;;;;0.00;0.00;;;;;;;;;;5035962;28;20037;-91
2022/02/25 00:53:02;;;;;;;0.10;0.10;;;;;;;;;;5036874;28;20037;-90
2022/02/25 00:55:28;;;;;;;0.00;0.00;;;;;;;;;;5199097;22;20059;-90
2022/02/25 00:57:57;;;;;;;0.10;0.10;;;;;;;;;;5076433;28;20040;-89
2022/02/25 01:00:23;;;;;;;0.10;0.10;;;;;;;;;;5060215;28;20032;-89
2022/02/25 01:02:49;;;;;;;0.00;0.00;;;;;;;;;;5059835;28;20505;-91
2022/02/25 01:05:15;;;;;;;0.00;0.00;;;;;;;;;;5056393;28;20094;-90
2022/02/25 01:07:41;;;;;;;0.00;0.00;;;;;;;;;;5055948;28;20044;-91
2022/02/25 01:10:08;;;;;;;0.00;0.00;;;;;;;;;;5039626;28;20132;-91
2022/02/25 01:12:34;;;;;;;0.00;0.00;;;;;;;;;;5039321;28;20094;-90
2022/02/25 01:15:00;;;;;;;0.00;0.00;;;;;;;;;;5056078;28;20040;-91
2022/02/25 01:17:29;;;;;;;0.00;0.00;;;;;;;;;;5039510;28;20712;-91
2022/02/25 01:19:55;;;;;;;0.10;0.10;;;;;;;;;;5040100;28;20412;-90
2022/02/25 01:22:21;;;;;;;0.00;0.00;;;;;;;;;;5039537;28;20040;-90
2022/02/25 01:24:47;;;;;;;0.00;0.00;;;;;;;;;;5072675;28;20131;-89
2022/02/25 01:27:13;;;;;;;0.00;0.00;;;;;;;;;;5056174;28;20059;-90
2022/02/25 01:29:39;;;;;;;0.00;0.00;;;;;;;;;;5039632;28;20047;-89
2022/02/25 01:32:05;;;;;;;0.03;0.03;;;;;;;;;;5039024;28;20036;-90
2022/02/25 01:34:31;;;;;;;0.10;0.10;;;;;;;;;;5039159;28;20040;-89
2022/02/25 01:36:57;;;;;;;0.00;0.00;;;;;;;;;;5039558;28;20135;-89
2022/02/25 01:39:23;;;;;;;0.00;0.00;;;;;;;;;;5038845;28;20145;-91
2022/02/25 01:41:49;;;;;;;0.00;0.00;;;;;;;;;;5055681;28;20067;-90
2022/02/25 01:44:16;;;;;;;0.00;0.00;;;;;;;;;;5055347;28;20125;-90
2022/02/25 01:46:48;;;;;;;0.00;0.00;;;;;;;;;;5071852;28;20048;-90
2022/02/25 01:49:14;;;;;;;0.00;0.00;;;;;;;;;;5055197;28;20123;-89
2022/02/25 01:51:40;;;;;;;0.00;0.00;;;;;;;;;;5038956;28;20450;-90
2022/02/25 01:54:06;;;;;;;0.00;0.00;;;;;;;;;;5054996;28;20043;-89
2022/02/25 01:56:32;;;;;;;0.00;0.00;;;;;;;;;;5054996;28;20426;-90
2022/02/25 01:58:58;;;;;;;0.00;0.00;;;;;;;;;;5038790;28;20036;-90
2022/02/25 02:01:24;;;;;;;0.00;0.00;;;;;;;;;;5038034;28;20044;-90
2022/02/25 02:03:52;;;;;;;0.00;0.00;;;;;;;;;;5038945;28;20055;-89
2022/02/25 02:06:18;;;;;;;0.05;0.05;;;;;;;;;;5038272;28;20487;-88
2022/02/25 02:08:44;;;;;;;0.00;0.00;;;;;;;;;;5055048;28;20426;-90
2022/02/25 02:11:11;;;;;;;0.00;0.00;;;;;;;;;;5054823;28;20089;-89
2022/02/25 02:13:36;;;;;;;0.00;0.00;;;;;;;;;;5038130;28;20098;-88
2022/02/25 02:16:03;;;;;;;1.17;1.17;;;;;;;;;;5054661;28;20044;-88
2022/02/25 02:18:28;;;;;;;0.32;0.30;;;;;;;;;;5038895;28;20111;-89
2022/02/25 02:20:54;;;;;;;0.00;0.00;;;;;;;;;;5055627;28;20052;-88
2022/02/25 02:23:20;;;;;;;0.00;0.00;;;;;;;;;;5038405;28;20058;-89
2022/02/25 02:25:46;;;;;;;0.10;0.10;;;;;;;;;;5039243;28;20093;-91
2022/02/25 02:28:18;;;;;;;4.85;0.43;;;;;;;;;;5038310;28;20132;-90
2022/02/25 02:30:45;;;;;;;0.10;0.10;;;;;;;;;;5056008;28;20363;-91
2022/02/25 02:33:11;;;;;;;0.00;0.00;;;;;;;;;;5038507;28;20033;-90
2022/02/25 02:35:37;;;;;;;0.00;0.00;;;;;;;;;;5054968;28;20032;-90
2022/02/25 02:38:03;;;;;;;0.55;0.43;;;;;;;;;;5038777;28;20257;-89
2022/02/25 02:40:30;;;;;;;0.10;0.10;;;;;;;;;;5054839;28;20048;-90
2022/02/25 02:42:56;;;;;;;0.00;0.00;;;;;;;;;;5038200;28;20047;-90
2022/02/25 02:45:22;;;;;;;0.00;0.00;;;;;;;;;;5038074;28;20040;-89
2022/02/25 02:47:48;;;;;;;0.00;0.00;;;;;;;;;;5054652;28;20406;-90
2022/02/25 02:50:15;;;;;;;0.10;0.10;;;;;;;;;;5037941;28;20041;-89
2022/02/25 02:52:41;;;;;;;0.10;0.10;;;;;;;;;;5054933;28;20040;-90
2022/02/25 02:55:07;;;;;;;0.10;0.10;;;;;;;;;;5037704;28;20490;-90
2022/02/25 02:57:33;;;;;;;0.00;0.00;;;;;;;;;;5054757;28;20149;-90
2022/02/25 02:59:59;;;;;;;0.00;0.00;;;;;;;;;;5054931;28;20491;-91
2022/02/25 03:02:25;;;;;;;0.10;0.10;;;;;;;;;;5038367;28;20403;-91
2022/02/25 03:04:51;;;;;;;0.00;0.00;;;;;;;;;;5054757;28;20403;-92
2022/02/25 03:07:17;;;;;;;0.00;0.00;;;;;;;;;;5038135;28;20047;-91
2022/02/25 03:09:43;;;;;;;0.00;0.00;;;;;;;;;;5038343;28;20046;-91
2022/02/25 03:12:09;;;;;;;0.10;0.10;;;;;;;;;;5055158;28;20037;-91
2022/02/25 03:14:36;;;;;;;0.10;0.10;;;;;;;;;;5041849;28;20042;-91
2022/02/25 03:17:02;;;;;;;0.00;0.00;;;;;;;;;;5058855;28;20123;-90
2022/02/25 03:19:28;;;;;;;0.10;0.10;;;;;;;;;;5042134;28;20431;-91
2022/02/25 03:21:54;;;;;;;0.00;0.00;;;;;;;;;;5059194;28;20127;-91
2022/02/25 03:24:20;;;;;;;0.10;0.10;;;;;;;;;;5041851;28;20406;-92
2022/02/25 03:26:46;;;;;;;0.08;0.08;;;;;;;;;;5041992;28;20075;-91
2022/02/25 03:29:12;;;;;;;0.00;0.00;;;;;;;;;;5041951;28;20044;-91
2022/02/25 03:31:39;;;;;;;0.10;0.10;;;;;;;;;;5074955;28;20123;-92
2022/02/25 03:34:05;;;;;;;0.00;0.00;;;;;;;;;;5041606;28;20036;-91
2022/02/25 03:36:31;;;;;;;0.00;0.00;;;;;;;;;;5058586;28;20040;-91
2022/02/25 03:38:57;;;;;;;0.08;0.08;;;;;;;;;;5041702;28;20052;-92
2022/02/25 03:41:23;;;;;;;0.00;0.00;;;;;;;;;;5075391;28;20036;-91
2022/02/25 03:43:49;;;;;;;0.00;0.00;;;;;;;;;;5041342;28;20067;-92
2022/02/25 03:46:15;;;;;;;0.10;0.10;;;;;;;;;;5041970;28;20028;-92
2022/02/25 03:48:41;;;;;;;0.00;0.00;;;;;;;;;;5041177;28;20046;-90
2022/02/25 03:51:07;;;;;;;0.00;0.00;;;;;;;;;;5057802;28;20467;-91
2022/02/25 03:53:33;;;;;;;0.10;0.10;;;;;;;;;;5041313;28;20094;-91
2022/02/25 03:55:59;;;;;;;0.00;0.00;;;;;;;;;;5057556;28;20059;-91
2022/02/25 03:58:25;;;;;;;0.10;0.10;;;;;;;;;;5057714;28;20527;-91
2022/02/25 04:00:50;;;;;;;0.10;0.10;;;;;;;;;;5040934;28;20093;-91
2022/02/25 04:03:16;;;;;;;0.00;0.00;;;;;;;;;;5041112;28;20131;-91
2022/02/25 04:05:42;;;;;;;0.00;0.00;;;;;;;;;;5057872;28;20138;-91
2022/02/25 04:08:08;;;;;;;0.10;0.10;;;;;;;;;;5057575;28;20040;-91
2022/02/25 04:10:35;;;;;;;0.10;0.10;;;;;;;;;;5057375;28;20175;-89
2022/02/25 04:13:01;;;;;;;0.00;0.00;;;;;;;;;;5057373;28;20608;-89
2022/02/25 04:15:27;;;;;;;0.08;0.08;;;;;;;;;;5040335;28;20044;-90
2022/02/25 04:17:53;;;;;;;0.10;0.10;;;;;;;;;;5057075;28;20402;-90
2022/02/25 04:20:19;;;;;;;0.00;0.00;;;;;;;;;;5040582;28;20198;-90
2022/02/25 04:22:45;;;;;;;0.10;0.10;;;;;;;;;;5057002;28;20048;-91
2022/02/25 04:25:11;;;;;;;0.00;0.00;;;;;;;;;;5039469;28;20040;-91
2022/02/25 04:27:38;;;;;;;0.10;0.10;;;;;;;;;;5040607;28;20474;-91
2022/02/25 04:30:04;;;;;;;0.00;0.00;;;;;;;;;;5040764;28;20047;-91
2022/02/25 04:32:30;;;;;;;0.00;0.00;;;;;;;;;;5040774;28;20032;-91
2022/02/25 04:34:56;;;;;;;0.08;0.08;;;;;;;;;;5040469;28;20051;-91
2022/02/25 04:37:22;;;;;;;0.10;0.10;;;;;;;;;;5073822;28;20041;-91
2022/02/25 04:39:48;;;;;;;0.10;0.10;;;;;;;;;;5040322;28;20401;-90
2022/02/25 04:42:14;;;;;;;0.00;0.00;;;;;;;;;;5040582;28;20181;-91
2022/02/25 04:44:43;;;;;;;0.10;0.10;;;;;;;;;;5040205;28;20052;-91
2022/02/25 04:47:09;;;;;;;0.10;0.10;;;;;;;;;;5040178;28;20041;-91
2022/02/25 04:49:35;;;;;;;0.00;0.00;;;;;;;;;;5045407;28;20075;-94
2022/02/25 04:52:03;;;;;;;0.00;0.00;;;;;;;;;;5040915;28;20068;-93
2022/02/25 04:54:29;;;;;;;0.10;0.10;;;;;;;;;;5057464;28;20044;-91
2022/02/25 04:56:55;;;;;;;0.10;0.10;;;;;;;;;;5040463;28;20044;-91
2022/02/25 04:59:22;;;;;;;0.10;0.10;;;;;;;;;;5040294;28;20115;-90
2022/02/25 05:01:48;;;;;;;0.00;0.00;;;;;;;;;;5039800;28;20101;-91
2022/02/25 05:04:14;;;;;;;0.10;0.10;;;;;;;;;;5056672;28;20040;-91
2022/02/25 05:06:40;;;;;;;0.03;0.03;;;;;;;;;;5040064;28;20113;-91
2022/02/25 05:09:06;;;;;;;0.10;0.10;;;;;;;;;;5040000;28;20067;-91
2022/02/25 05:11:32;;;;;;;0.00;0.00;;;;;;;;;;5056501;28;20036;-90
2022/02/25 05:13:58;;;;;;;0.10;0.10;;;;;;;;;;5039570;28;20032;-91
2022/02/25 05:21:53;;;;;;;0.10;0.10;;;;;;;;;;5058539;28;20084;-90
2022/02/25 05:24:19;;;;;;;0.10;0.10;;;;;;;;;;5039564;28;20090;-91
2022/02/25 05:26:45;;;;;;;0.10;0.10;;;;;;;;;;5056140;28;20070;-91
2022/02/25 05:29:11;;;;;;;0.10;0.10;;;;;;;;;;5039693;28;20040;-91
2022/02/25 05:31:37;;;;;;;0.00;0.00;;;;;;;;;;5056353;28;20568;-91
2022/02/25 05:34:02;;;;;;;0.00;0.00;;;;;;;;;;5056318;28;20047;-90
2022/02/25 05:36:28;;;;;;;0.00;0.00;;;;;;;;;;5055685;28;20085;-90
2022/02/25 05:38:55;;;;;;;0.00;0.00;;;;;;;;;;5038975;28;20044;-90
2022/02/25 05:41:21;;;;;;;0.05;0.05;;;;;;;;;;5039061;28;20051;-90
2022/02/25 05:43:47;;;;;;;0.00;0.00;;;;;;;;;;5055782;28;20036;-92
2022/02/25 05:46:13;;;;;;;0.00;0.00;;;;;;;;;;5039246;28;20082;-90
2022/02/25 05:48:39;;;;;;;0.10;0.10;;;;;;;;;;5072188;28;20072;-91
2022/02/25 05:51:05;;;;;;;0.00;0.00;;;;;;;;;;5039330;28;20471;-91
2022/02/25 05:53:31;;;;;;;0.10;0.10;;;;;;;;;;5072342;28;20072;-91
2022/02/25 05:55:57;;;;;;;0.00;0.00;;;;;;;;;;5039120;28;20052;-91
2022/02/25 05:58:23;;;;;;;0.00;0.00;;;;;;;;;;5039158;28;20135;-92
2022/02/25 06:00:49;;;;;;;0.00;0.00;;;;;;;;;;5056113;28;20048;-91
2022/02/25 06:03:15;;;;;;;0.10;0.10;;;;;;;;;;5039302;28;20044;-91
2022/02/25 06:05:41;;;;;;;0.00;0.00;;;;;;;;;;5055711;28;20474;-90
2022/02/25 06:08:07;;;;;;;0.00;0.00;;;;;;;;;;5055474;28;20052;-91
2022/02/25 06:10:33;;;;;;;0.00;0.00;;;;;;;;;;5055879;28;20040;-90
2022/02/25 06:13:00;;;;;;;0.10;0.10;;;;;;;;;;5055902;28;20032;-91
2022/02/25 06:15:26;;;;;;;0.00;0.00;;;;;;;;;;5039035;28;20037;-91
2022/02/25 06:17:52;;;;;;;0.00;0.00;;;;;;;;;;5038962;28;20463;-92
2022/02/25 06:20:18;;;;;;;0.00;0.00;;;;;;;;;;5055855;28;20055;-91
2022/02/25 06:22:44;;;;;;;0.00;0.00;;;;;;;;;;5038758;28;20051;-92
2022/02/25 06:25:10;;;;;;;0.10;0.10;;;;;;;;;;5038784;28;20044;-92
2022/02/25 06:27:38;;;;;;;0.10;0.10;;;;;;;;;;5039597;28;20122;-94
2022/02/25 06:30:05;;;;;;;0.10;0.10;;;;;;;;;;5055664;28;20036;-93
2022/02/25 06:32:31;;;;;;;0.10;0.10;;;;;;;;;;5039032;28;20483;-93
2022/02/25 06:34:56;;;;;;;0.10;0.10;;;;;;;;;;5039184;28;20090;-93
2022/02/25 06:37:23;;;;;;;0.10;0.10;;;;;;;;;;5039418;28;20097;-93
2022/02/25 06:39:50;;;;;;;0.00;0.00;;;;;;;;;;5055518;28;20395;-93
2022/02/25 06:42:16;;;;;;;0.10;0.10;;;;;;;;;;5055508;28;20044;-94
2022/02/25 06:44:42;;;;;;;0.03;0.03;;;;;;;;;;5055226;28;20047;-92
2022/02/25 06:47:08;;;;;;;0.00;0.00;;;;;;;;;;5038835;28;20040;-93
2022/02/25 06:49:35;;;;;;;0.00;0.00;;;;;;;;;;5042717;28;20123;-92
2022/02/25 06:52:01;;;;;;;0.00;0.00;;;;;;;;;;5042522;28;20048;-93
2022/02/25 06:54:27;;;;;;;0.00;0.00;;;;;;;;;;5042494;28;20041;-93
2022/02/25 06:56:53;;;;;;;0.00;0.00;;;;;;;;;;5058784;28;20071;-92
2022/02/25 06:59:19;;;;;;;0.10;0.10;;;;;;;;;;5075760;28;20390;-93
2022/02/25 07:01:45;;;;;;;0.00;0.00;;;;;;;;;;5042049;28;20032;-92
2022/02/25 07:04:11;;;;;;;0.00;0.00;;;;;;;;;;5042262;28;20045;-92
2022/02/25 07:06:38;;;;;;;0.00;0.00;;;;;;;;;;5041586;28;20051;-92
2022/02/25 07:09:07;;;;;;;0.00;0.00;;;;;;;;;;5042140;28;20391;-92
2022/02/25 07:11:34;;;;;;;0.00;0.00;;;;;;;;;;5075074;28;20037;-91
2022/02/25 07:13:59;;;;;;;0.00;0.00;;;;;;;;;;5041704;28;20123;-91
2022/02/25 07:16:25;;;;;;;0.00;0.00;;;;;;;;;;5058181;28;20186;-91
2022/02/25 07:18:51;;;;;;;0.00;0.00;;;;;;;;;;5041917;28;20044;-91
2022/02/25 07:21:17;;;;;;;0.30;0.30;;;;;;;;;;5041679;28;20060;-93
2022/02/25 07:23:43;;;;;;;0.00;0.00;;;;;;;;;;5041921;28;20414;-92
2022/02/25 07:26:09;;;;;;;0.00;0.00;;;;;;;;;;5042137;28;20055;-93
2022/02/25 07:28:35;;;;;;;0.10;0.10;;;;;;;;;;5041781;28;20548;-92
2022/02/25 07:31:01;;;;;;;0.00;0.00;;;;;;;;;;5041923;28;20066;-92
2022/02/25 07:33:27;;;;;;;0.00;0.00;;;;;;;;;;5041947;28;20108;-93
2022/02/25 07:35:55;;;;;;;0.00;0.00;;;;;;;;;;5041608;28;20127;-93
2022/02/25 07:38:21;;;;;;;0.00;0.00;;;;;;;;;;5042092;28;20052;-93
2022/02/25 07:40:48;;;;;;;0.00;0.00;;;;;;;;;;5058283;28;20046;-93
2022/02/25 07:43:18;;;;;;;0.00;0.00;;;;;;;;;;5058587;28;20044;-94
2022/02/25 07:45:45;;;;;;;0.00;0.00;;;;;;;;;;5042439;28;20044;-93
2022/02/25 07:48:11;;;;;;;0.00;0.00;;;;;;;;;;5037096;28;20037;-92
2022/02/25 07:50:37;;;;;;;0.00;0.00;;;;;;;;;;5043641;28;20032;-93
2022/02/25 07:53:03;;;;;;;0.00;0.00;;;;;;;;;;5030445;28;20370;-93
2022/02/25 07:55:30;;;;;;;0.00;0.00;;;;;;;;;;5021348;28;20085;-93
2022/02/25 07:57:57;;;;;;;0.00;0.00;;;;;;;;;;5021986;28;20048;-91
2022/02/25 08:00:24;;;;;;;0.00;0.00;;;;;;;;;;5019904;28;20143;-92
2022/02/25 08:02:50;;;;;;;0.00;0.00;;;;;;;;;;5021099;28;20124;-91
2022/02/25 08:05:16;;;;;;;0.00;0.00;;;;;;;;;;5037039;28;20191;-93
2022/02/25 08:07:43;;;;;;;0.00;0.00;;;;;;;;;;5041275;28;20044;-93
2022/02/25 08:10:09;;;;;;;0.00;0.00;;;;;;;;;;5040809;28;20037;-91
2022/02/25 08:12:35;;;;;;;0.00;0.00;;;;;;;;;;5040395;28;20097;-92
2022/02/25 08:15:01;;;;;;;0.00;0.00;;;;;;;;;;5057323;28;20391;-92
2022/02/25 08:17:27;;;;;;;0.00;0.00;;;;;;;;;;5040933;28;20040;-91
2022/02/25 08:19:53;;;;;;;0.00;0.00;;;;;;;;;;5040731;28;20044;-92
2022/02/25 08:22:22;;;;;;;0.00;0.00;;;;;;;;;;5040921;28;20062;-91
2022/02/25 08:24:48;;;;;;;0.00;0.00;;;;;;;;;;5056694;28;20048;-91
2022/02/25 08:27:14;;;;;;;0.00;0.00;;;;;;;;;;5040850;28;20041;-91
2022/02/25 08:29:40;;;;;;;0.00;0.00;;;;;;;;;;5040803;28;20114;-88
2022/02/25 08:32:06;;;;;;;0.00;0.00;;;;;;;;;;5040783;28;20106;-90
2022/02/25 08:34:33;;;;;;;0.00;0.00;;;;;;;;;;5040664;28;20042;-88
2022/02/25 08:36:58;;;;;;;0.00;0.00;;;;;;;;;;5056918;28;20128;-90
2022/02/25 08:39:25;;;;;;;0.00;0.00;;;;;;;;;;5057461;28;20032;-90
2022/02/25 08:41:51;;;;;;;0.00;0.00;;;;;;;;;;5057171;28;20037;-91
2022/02/25 08:44:17;;;;;;;0.10;0.10;;;;;;;;;;5040673;28;20102;-91
2022/02/25 08:46:45;;;;;;;0.10;0.10;;;;;;;;;;5040571;28;20040;-91
2022/02/25 08:49:11;;;;;;;0.10;0.10;;;;;;;;;;5057237;28;20076;-91
2022/02/25 08:51:37;;;;;;;0.10;0.10;;;;;;;;;;5039864;28;20045;-90
2022/02/25 08:54:04;;;;;;;0.20;0.20;;;;;;;;;;5039886;28;20094;-91
2022/02/25 08:56:30;;;;;;;0.10;0.10;;;;;;;;;;5039791;28;20048;-91
2022/02/25 08:58:56;;;;;;;0.10;0.10;;;;;;;;;;5039992;28;20047;-89
2022/02/25 09:01:23;;;;;;;0.10;0.10;;;;;;;;;;5056437;28;20131;-90
2022/02/25 09:03:49;;;;;;;0.10;0.10;;;;;;;;;;5039988;28;20097;-89
2022/02/25 09:06:15;;;;;;;0.10;0.10;;;;;;;;;;5039627;28;20131;-90
2022/02/25 09:08:41;;;;;;;0.10;0.10;;;;;;;;;;5039461;28;20036;-90
2022/02/25 09:11:07;;;;;;;0.10;0.10;;;;;;;;;;5056210;28;20193;-91
2022/02/25 09:13:33;;;;;;;0.10;0.10;;;;;;;;;;5039469;28;20502;-90
2022/02/25 09:15:59;;;;;;;0.10;0.10;;;;;;;;;;5055962;28;20043;-89
2022/02/25 09:18:25;;;;;;;0.10;0.10;;;;;;;;;;5055674;28;20110;-89
2022/02/25 09:20:51;;;;;;;0.10;0.10;;;;;;;;;;5055712;28;20128;-88
2022/02/25 09:23:17;;;;;;;0.10;0.10;;;;;;;;;;5038969;28;20084;-87
2022/02/25 09:25:44;;;;;;;0.10;0.10;;;;;;;;;;5055409;28;20040;-89
2022/02/25 09:28:10;;;;;;;0.00;0.00;;;;;;;;;;5055426;28;20083;-89
2022/02/25 09:30:36;;;;;;;0.10;0.10;;;;;;;;;;5039212;28;20076;-89
2022/02/25 09:33:02;;;;;;;0.10;0.10;;;;;;;;;;5055810;28;20032;-89
2022/02/25 09:35:28;;;;;;;0.00;0.00;;;;;;;;;;5056115;28;20387;-89
2022/02/25 09:37:54;;;;;;;0.10;0.10;;;;;;;;;;5039238;28;20475;-89
2022/02/25 09:40:20;;;;;;;0.00;0.00;;;;;;;;;;5056500;28;20041;-89
2022/02/25 09:42:46;;;;;;;0.00;0.00;;;;;;;;;;5039150;28;20201;-89
2022/02/25 09:45:13;;;;;;;0.10;0.10;;;;;;;;;;5039183;28;20123;-88
2022/02/25 09:47:39;;;;;;;0.08;0.08;;;;;;;;;;5038720;28;20040;-91
2022/02/25 09:50:07;;;;;;;0.10;0.10;;;;;;;;;;5022834;28;20072;-90
2022/02/25 09:52:33;;;;;;;0.05;0.05;;;;;;;;;;5039104;28;20040;-90
2022/02/25 09:54:59;;;;;;;0.10;0.10;;;;;;;;;;5054990;28;20056;-87
2022/02/25 09:57:25;;;;;;;0.30;0.25;;;;;;;;;;5055110;28;20124;-89
2022/02/25 09:59:51;;;;;;;0.10;0.10;;;;;;;;;;5038959;28;20040;-90
2022/02/25 10:02:17;;;;;;;0.90;0.40;;;;;;;;;;5055612;28;20404;-91
2022/02/25 10:04:43;;;;;;;0.00;0.00;;;;;;;;;;5055243;28;20086;-90
2022/02/25 10:07:25;;;;;;;0.10;0.10;;;;;;;;;;5055140;28;20036;-90
2022/02/25 10:09:51;;;;;;;0.28;0.17;;;;;;;;;;5054983;28;20040;-90
2022/02/25 10:12:18;;;;;;;0.10;0.10;;;;;;;;;;5038588;28;20131;-89
2022/02/25 10:14:44;;;;;;;3.30;0.55;;;;;;;;;;5038259;28;20044;-90
2022/02/25 10:17:16;;;;;;;0.10;0.10;;;;;;;;;;5038519;28;20048;-92
2022/02/25 10:19:43;;;;;;;0.10;0.10;;;;;;;;;;5054743;28;20041;-90
2022/02/25 10:22:15;;;;;;;0.10;0.10;;;;;;;;;;5037613;28;20444;-90
2022/02/25 10:24:48;;;;;;;0.10;0.10;;;;;;;;;;5069794;28;20500;-90
2022/02/25 10:27:17;;;;;;;0.10;0.10;;;;;;;;;;5054407;28;20040;-89
2022/02/25 10:30:02;;;;;;;0.10;0.10;;;;;;;;;;5045560;28;20116;-89
2022/02/25 10:32:29;;;;;;;0.10;0.10;;;;;;;;;;5034228;28;20488;-89
2022/02/25 10:34:55;;;;;;;0.10;0.10;;;;;;;;;;5034613;28;20083;-90
2022/02/25 10:37:22;;;;;;;0.10;0.10;;;;;;;;;;5051357;28;20092;-90
2022/02/25 10:39:48;;;;;;;0.10;0.10;;;;;;;;;;5051446;28;20041;-90
2022/02/25 10:42:15;;;;;;;0.25;0.25;;;;;;;;;;5051133;28;20128;-90
2022/02/25 10:44:44;;;;;;;0.22;0.22;;;;;;;;;;5018258;28;20056;-90
2022/02/25 10:47:11;;;;;;;0.30;0.30;;;;;;;;;;5050956;28;20076;-89
2022/02/25 10:49:37;;;;;;;0.20;0.20;;;;;;;;;;5051334;28;20037;-89
2022/02/25 10:52:19;;;;;;;0.43;0.40;;;;;;;;;;5018491;28;20041;-90
2022/02/25 10:54:44;;;;;;;0.10;0.10;;;;;;;;;;5050955;28;20122;-89
2022/02/25 10:57:12;;;;;;;0.10;0.10;;;;;;;;;;5017909;28;20496;-89
2022/02/25 10:59:42;;;;;;;0.28;0.28;;;;;;;;;;5027099;28;20059;-88
2022/02/25 11:02:27;;;;;;;0.10;0.10;;;;;;;;;;5054118;28;20500;-88
2022/02/25 11:04:59;;;;;;;0.20;0.20;;;;;;;;;;5070810;28;20043;-88
2022/02/25 11:07:29;;;;;;;0.10;0.10;;;;;;;;;;5053772;28;20067;-88
2022/02/25 11:09:55;;;;;;;0.00;0.00;;;;;;;;;;5037419;28;20036;-89
2022/02/25 11:12:21;;;;;;;0.28;0.20;;;;;;;;;;5054018;28;20427;-88
2022/02/25 11:14:47;;;;;;;0.10;0.10;;;;;;;;;;5037720;28;20036;-88
2022/02/25 11:17:13;;;;;;;0.10;0.10;;;;;;;;;;5053905;28;20051;-88
2022/02/25 11:19:40;;;;;;;0.10;0.10;;;;;;;;;;5070439;28;20126;-88
2022/02/25 11:22:07;;;;;;;0.10;0.10;;;;;;;;;;5070513;28;20042;-89
2022/02/25 11:24:35;;;;;;;0.10;0.10;;;;;;;;;;5037084;28;20040;-89
2022/02/25 11:27:01;;;;;;;0.00;0.00;;;;;;;;;;5037680;28;20076;-88
2022/02/25 11:29:27;;;;;;;0.85;0.85;;;;;;;;;;5053942;28;20083;-88
2022/02/25 11:31:53;;;;;;;0.10;0.10;;;;;;;;;;5053994;28;20072;-89
2022/02/25 11:34:19;;;;;;;0.10;0.10;;;;;;;;;;5039270;28;20411;-88
2022/02/25 11:36:49;;;;;;;0.00;0.00;;;;;;;;;;5057473;28;20191;-89
2022/02/25 11:39:25;;;;;;;0.00;0.00;;;;;;;;;;5041174;28;20072;-88
2022/02/25 11:41:52;;;;;;;0.00;0.00;;;;;;;;;;5041248;28;20040;-91
2022/02/25 11:44:18;;;;;;;0.10;0.10;;;;;;;;;;5057924;28;20044;-91
2022/02/25 11:46:45;;;;;;;0.05;0.05;;;;;;;;;;5040889;28;20555;-91
2022/02/25 11:49:10;;;;;;;0.00;0.00;;;;;;;;;;5057079;28;20083;-89
2022/02/25 11:51:40;;;;;;;0.10;0.10;;;;;;;;;;5074408;28;20072;-91
2022/02/25 11:54:19;;;;;;;0.10;0.10;;;;;;;;;;5057587;28;20042;-95
2022/02/25 11:57:10;;;;;;;0.10;0.10;;;;;;;;;;5040653;28;20102;-90
2022/02/25 11:59:36;;;;;;;0.10;0.10;;;;;;;;;;5057735;28;20128;-91
2022/02/25 12:02:08;;;;;;;0.10;0.10;;;;;;;;;;5057366;28;20499;-90
2022/02/25 12:04:36;;;;;;;0.10;0.10;;;;;;;;;;5073576;28;20044;-88
2022/02/25 12:07:11;;;;;;;0.10;0.10;;;;;;;;;;5040348;28;20219;-89
2022/02/25 12:09:46;;;;;;;0.10;0.10;;;;;;;;;;5057241;28;20098;-89
2022/02/25 12:12:24;;;;;;;0.65;0.45;;;;;;;;;;5073506;28;20131;-89
2022/02/25 12:15:07;;;;;;;0.10;0.10;;;;;;;;;;5073413;28;20479;-90
2022/02/25 12:17:37;;;;;;;0.10;0.10;;;;;;;;;;5056789;28;20513;-90
2022/02/25 12:20:07;;;;;;;0.10;0.10;;;;;;;;;;5073232;28;20487;-93
2022/02/25 12:22:52;;;;;;;0.10;0.10;;;;;;;;;;5057363;28;20127;-90
2022/02/25 12:25:36;;;;;;;0.10;0.10;;;;;;;;;;5056587;28;20487;-89
2022/02/25 12:28:23;;;;;;;0.00;0.00;;;;;;;;;;5072894;28;20068;-88
2022/02/25 12:30:58;;;;;;;0.10;0.10;;;;;;;;;;5049537;28;20048;-88
2022/02/25 12:33:34;;;;;;;0.10;0.10;;;;;;;;;;5056401;28;20537;-88
2022/02/25 12:36:01;;;;;;;0.10;0.10;;;;;;;;;;5072682;28;20071;-88
2022/02/25 12:38:28;;;;;;;0.15;0.15;;;;;;;;;;5056423;28;20044;-88
2022/02/25 12:40:55;;;;;;;0.10;0.10;;;;;;;;;;5056386;28;20479;-88
2022/02/25 12:43:21;;;;;;;0.38;0.38;;;;;;;;;;5056454;28;20043;-88
2022/02/25 12:45:47;;;;;;;0.08;0.08;;;;;;;;;;5038770;28;20052;-87
2022/02/25 12:48:13;;;;;;;0.10;0.10;;;;;;;;;;5055931;28;20496;-88
2022/02/25 12:50:40;;;;;;;0.10;0.10;;;;;;;;;;5056055;28;20124;-88
2022/02/25 12:53:06;;;;;;;0.10;0.10;;;;;;;;;;5055629;28;20071;-88
2022/02/25 12:55:32;;;;;;;0.10;0.10;;;;;;;;;;5072072;28;20049;-88
2022/02/25 12:57:58;;;;;;;0.10;0.10;;;;;;;;;;5056133;28;20479;-87
2022/02/25 13:00:24;;;;;;;0.10;0.10;;;;;;;;;;5039208;28;20051;-88
2022/02/25 13:02:53;;;;;;;0.10;0.10;;;;;;;;;;5039178;28;20562;-88
2022/02/25 13:05:22;;;;;;;0.10;0.10;;;;;;;;;;5039260;28;20060;-89
2022/02/25 13:07:55;;;;;;;0.10;0.10;;;;;;;;;;5055594;28;20075;-88
2022/02/25 13:10:28;;;;;;;0.10;0.10;;;;;;;;;;5038994;28;20048;-88
2022/02/25 13:12:55;;;;;;;0.10;0.10;;;;;;;;;;5072665;28;20123;-90
2022/02/25 13:15:25;;;;;;;0.10;0.10;;;;;;;;;;5039534;28;20037;-90
2022/02/25 13:17:51;;;;;;;0.10;0.10;;;;;;;;;;5056438;28;20041;-91
2022/02/25 13:20:18;;;;;;;0.73;0.25;;;;;;;;;;5056058;28;20491;-90
2022/02/25 13:22:44;;;;;;;0.10;0.10;;;;;;;;;;5039381;28;20041;-91
2022/02/25 13:25:11;;;;;;;0.10;0.10;;;;;;;;;;5055822;28;20399;-91
2022/02/25 13:27:38;;;;;;;0.30;0.30;;;;;;;;;;5039638;28;20609;-90
2022/02/25 13:30:21;;;;;;;0.10;0.10;;;;;;;;;;5039165;28;20039;-90
2022/02/25 13:32:48;;;;;;;0.10;0.10;;;;;;;;;;5038876;28;20045;-92
2022/02/25 13:35:14;;;;;;;0.10;0.10;;;;;;;;;;5054555;28;20115;-90
2022/02/25 13:37:46;;;;;;;0.10;0.10;;;;;;;;;;5035859;28;20138;-89
2022/02/25 13:40:28;;;;;;;0.10;0.10;;;;;;;;;;5051875;28;20087;-89
2022/02/25 13:42:54;;;;;;;16.10;1.48;;;;;;;;;;5052345;28;20130;-89
2022/02/25 13:45:30;;;;;;;0.10;0.10;;;;;;;;;;5035043;28;20072;-90
2022/02/25 13:53:35;;;;;;;1.35;0.75;;;;;;;;;;5054342;28;20045;-89
2022/02/25 13:56:02;;;;;;;0.10;0.10;;;;;;;;;;5035074;28;20053;-89
2022/02/25 13:58:28;;;;;;;0.10;0.10;;;;;;;;;;5035545;28;20045;-90
2022/02/25 14:00:54;;;;;;;0.10;0.10;;;;;;;;;;5051932;28;20044;-89
2022/02/25 14:03:21;;;;;;;0.20;0.20;;;;;;;;;;5034941;28;20109;-89
2022/02/25 14:05:46;;;;;;;0.10;0.10;;;;;;;;;;5051658;28;20049;-90
2022/02/25 14:08:17;;;;;;;0.10;0.10;;;;;;;;;;5034787;28;20048;-90
2022/02/25 14:10:43;;;;;;;0.80;0.60;;;;;;;;;;5018717;28;20120;-90
2022/02/25 14:13:10;;;;;;;0.10;0.10;;;;;;;;;;5018515;28;20064;-90
2022/02/25 14:15:40;;;;;;;0.10;0.10;;;;;;;;;;5051432;28;20063;-90
2022/02/25 14:18:07;;;;;;;0.10;0.10;;;;;;;;;;5018584;28;20049;-89
2022/02/25 14:20:34;;;;;;;10.20;0.40;;;;;;;;;;5018620;28;20435;-90
2022/02/25 14:23:00;;;;;;;0.10;0.10;;;;;;;;;;5051404;28;20037;-90
2022/02/25 14:25:30;;;;;;;0.10;0.10;;;;;;;;;;5051408;28;20131;-89
2022/02/25 14:28:15;;;;;;;0.10;0.10;;;;;;;;;;5051334;28;20128;-89
2022/02/25 14:30:53;;;;;;;0.10;0.10;;;;;;;;;;5051130;28;20484;-89
2022/02/25 14:33:20;;;;;;;0.45;0.45;;;;;;;;;;5017797;28;20449;-87
2022/02/25 14:36:06;;;;;;;0.85;0.77;;;;;;;;;;5017798;28;20037;-89
2022/02/25 14:38:32;;;;;;;0.10;0.10;;;;;;;;;;5034252;28;20454;-89
2022/02/25 14:40:58;;;;;;;0.10;0.10;;;;;;;;;;5017678;28;20067;-89
2022/02/25 14:43:24;;;;;;;0.10;0.10;;;;;;;;;;5051062;28;20041;-90
2022/02/25 14:45:50;;;;;;;0.30;0.30;;;;;;;;;;5017739;28;20128;-90
2022/02/25 14:48:17;;;;;;;1.40;1.40;;;;;;;;;;5050937;28;20076;-89
2022/02/25 14:50:44;;;;;;;0.10;0.10;;;;;;;;;;5017781;28;20043;-89
2022/02/25 14:53:10;;;;;;;0.10;0.10;;;;;;;;;;5050963;28;20029;-90
2022/02/25 14:55:36;;;;;;;0.10;0.10;;;;;;;;;;5051254;28;20049;-89